createdAt,value
2023-02-03T00:01:54.439Z,32.73
2023-02-03T00:04:21.969Z,26.37
2023-02-03T00:06:51.022Z,32.00
2023-02-03T00:09:19.993Z,31.23
2023-02-03T00:11:47.685Z,30.87
2023-02-03T00:14:15.205Z,32.73
2023-02-03T00:16:42.965Z,31.50
2023-02-03T00:19:10.592Z,32.97
2023-02-03T00:21:38.178Z,30.53
2023-02-03T00:24:05.988Z,34.07
2023-02-03T00:26:33.461Z,32.73
2023-02-03T00:29:01.188Z,30.97
2023-02-03T00:31:47.167Z,29.40
2023-02-03T00:35:41.585Z,26.50
2023-02-03T00:39:26.543Z,31.43
2023-02-03T00:43:02.284Z,29.97
2023-02-03T00:46:53.905Z,33.33
2023-02-03T00:57:55.623Z,33.22
2023-02-03T01:20:22.522Z,35.67
2023-02-03T01:23:27.451Z,36.57
2023-02-03T01:26:09.653Z,34.47
2023-02-03T01:28:38.259Z,32.40
2023-02-03T01:31:17.582Z,34.83
2023-02-03T01:33:48.260Z,33.83
2023-02-03T01:36:17.443Z,33.37
2023-02-03T01:38:45.784Z,33.33
2023-02-03T01:41:24.594Z,36.57
2023-02-03T01:43:56.686Z,35.00
2023-02-03T01:46:48.353Z,33.97
2023-02-03T01:49:31.901Z,34.03
2023-02-03T01:51:59.854Z,30.37
2023-02-03T01:54:31.855Z,33.37
2023-02-03T01:57:06.421Z,34.07
2023-02-03T01:59:35.975Z,29.17
2023-02-03T02:02:05.010Z,32.90
2023-02-03T02:04:59.911Z,34.63
2023-02-03T02:07:28.288Z,31.10
2023-02-03T02:09:56.740Z,31.37
2023-02-03T02:12:24.283Z,34.30
2023-02-03T02:14:52.067Z,33.97
2023-02-03T02:17:32.448Z,32.40
2023-02-03T02:20:10.157Z,32.93
2023-02-03T02:22:46.669Z,31.07
2023-02-03T02:25:42.427Z,32.50
2023-02-03T02:28:28.184Z,33.37
2023-02-03T02:31:02.855Z,33.53
2023-02-03T02:33:55.278Z,32.83
2023-02-03T02:36:35.369Z,37.23
2023-02-03T02:39:38.883Z,34.00
2023-02-03T02:43:02.186Z,31.97
2023-02-03T02:45:40.571Z,36.47
2023-02-03T02:48:19.658Z,33.87
2023-02-03T02:50:52.116Z,30.30
2023-02-03T02:53:24.911Z,33.93
2023-02-03T02:55:57.241Z,34.73
2023-02-03T02:58:27.099Z,31.43
2023-02-03T03:00:55.337Z,30.50
2023-02-03T03:03:24.793Z,34.13
2023-02-03T03:05:56.137Z,30.37
2023-02-03T03:08:50.062Z,33.10
2023-02-03T03:11:18.687Z,31.13
2023-02-03T03:13:51.060Z,35.03
2023-02-03T03:16:25.795Z,32.80
2023-02-03T03:19:04.958Z,26.90
2023-02-03T03:21:41.165Z,35.40
2023-02-03T03:24:14.351Z,29.07
2023-02-03T03:26:50.990Z,32.13
2023-02-03T03:29:31.420Z,32.67
2023-02-03T03:31:59.076Z,26.73
2023-02-03T03:34:26.638Z,33.10
2023-02-03T03:37:03.408Z,29.90
2023-02-03T03:39:35.764Z,32.65
2023-02-03T03:42:14.183Z,28.63
2023-02-03T03:45:00.417Z,30.57
2023-02-03T03:47:35.857Z,29.37
2023-02-03T03:50:10.331Z,30.97
2023-02-03T03:52:40.065Z,30.27
2023-02-03T03:55:11.949Z,33.70
2023-02-03T03:57:48.933Z,32.13
2023-02-03T04:00:20.856Z,34.67
2023-02-03T04:02:53.476Z,30.60
2023-02-03T04:05:22.133Z,33.07
2023-02-03T04:07:49.782Z,28.83
2023-02-03T04:10:37.614Z,33.80
2023-02-03T04:13:06.388Z,32.00
2023-02-03T04:15:34.471Z,30.87
2023-02-03T04:18:02.376Z,29.47
2023-02-03T04:20:31.656Z,29.23
2023-02-03T04:22:59.644Z,28.43
2023-02-03T04:25:27.217Z,32.60
2023-02-03T04:27:55.609Z,33.47
2023-02-03T04:30:24.139Z,33.17
2023-02-03T04:32:51.705Z,27.90
2023-02-03T04:35:19.868Z,28.93
2023-02-03T04:37:47.426Z,31.17
2023-02-03T04:40:15.149Z,28.80
2023-02-03T04:42:43.014Z,28.67
2023-02-03T04:45:12.579Z,29.50
2023-02-03T04:47:40.460Z,24.30
2023-02-03T04:50:08.192Z,27.83
2023-02-03T04:52:35.767Z,31.33
2023-02-03T04:55:04.189Z,28.80
2023-02-03T04:57:31.854Z,30.03
2023-02-03T04:59:59.359Z,31.57
2023-02-03T05:02:26.845Z,27.43
2023-02-03T05:04:54.556Z,25.37
2023-02-03T05:07:22.100Z,28.67
2023-02-03T05:09:49.574Z,29.70
2023-02-03T05:12:17.043Z,28.47
2023-02-03T05:14:44.494Z,30.07
2023-02-03T05:17:12.076Z,26.27
2023-02-03T05:19:39.665Z,27.73
2023-02-03T05:22:07.237Z,27.07
2023-02-03T05:24:34.749Z,31.77
2023-02-03T05:27:02.310Z,28.20
2023-02-03T05:29:29.840Z,27.27
2023-02-03T05:31:57.549Z,27.23
2023-02-03T05:34:25.048Z,30.17
2023-02-03T05:36:52.793Z,32.90
2023-02-03T05:39:20.342Z,27.53
2023-02-03T05:41:56.572Z,26.37
2023-02-03T05:44:29.402Z,29.08
2023-02-03T05:46:59.831Z,28.37
2023-02-03T05:49:27.584Z,27.00
2023-02-03T05:51:56.144Z,26.27
2023-02-03T05:54:23.971Z,27.13
2023-02-03T05:56:51.759Z,28.63
2023-02-03T05:59:19.428Z,29.47
2023-02-03T06:01:46.985Z,29.80
2023-02-03T06:04:14.722Z,33.27
2023-02-03T06:06:42.252Z,28.30
2023-02-03T06:09:09.990Z,27.30
2023-02-03T06:11:37.574Z,30.93
2023-02-03T06:14:05.427Z,27.03
2023-02-03T06:16:32.990Z,32.80
2023-02-03T06:19:02.128Z,32.17
2023-02-03T06:21:29.771Z,27.07
2023-02-03T06:23:57.368Z,28.73
2023-02-03T06:26:25.615Z,28.47
2023-02-03T06:28:53.240Z,26.13
2023-02-03T06:31:20.816Z,25.47
2023-02-03T06:33:48.470Z,28.67
2023-02-03T06:36:16.112Z,26.33
2023-02-03T06:38:43.686Z,32.70
2023-02-03T06:41:11.146Z,27.23
2023-02-03T06:43:38.662Z,27.00
2023-02-03T06:46:09.448Z,28.73
2023-02-03T06:48:38.571Z,31.13
2023-02-03T06:51:06.560Z,28.23
2023-02-03T06:53:34.182Z,30.87
2023-02-03T06:56:02.336Z,30.37
2023-02-03T06:58:29.936Z,32.30
2023-02-03T07:00:57.825Z,33.17
2023-02-03T07:03:25.461Z,33.13
2023-02-03T07:05:53.055Z,32.27
2023-02-03T07:08:26.822Z,36.13
2023-02-03T07:27:48.441Z,40.50
2023-02-03T07:43:11.818Z,31.23
2023-02-03T07:49:58.117Z,34.40
2023-02-03T08:07:57.384Z,29.27
2023-02-03T08:18:58.431Z,30.07
2023-02-03T09:03:04.825Z,32.67
2023-02-03T09:09:37.456Z,27.03
2023-02-03T09:12:24.180Z,27.13
2023-02-03T09:15:10.566Z,22.90
2023-02-03T09:18:17.495Z,25.40
2023-02-03T09:20:45.148Z,23.73
2023-02-03T09:23:12.723Z,23.33
2023-02-03T09:25:40.318Z,24.17
2023-02-03T09:28:07.824Z,24.30
2023-02-03T09:30:35.597Z,23.67
2023-02-03T09:33:03.126Z,22.90
2023-02-03T09:35:31.000Z,23.13
2023-02-03T09:38:00.887Z,21.17
2023-02-03T09:40:34.659Z,23.23
2023-02-03T09:46:48.947Z,24.90
2023-02-03T09:49:27.235Z,26.10
2023-02-03T09:52:02.757Z,24.37
2023-02-03T09:54:48.313Z,23.07
2023-02-03T09:57:23.654Z,24.57
2023-02-03T09:59:53.111Z,19.17
2023-02-03T10:02:30.266Z,18.43
2023-02-03T10:04:57.679Z,20.85
2023-02-03T10:07:55.891Z,21.07
2023-02-03T10:10:37.012Z,19.42
2023-02-03T10:13:13.529Z,19.80
2023-02-03T10:15:43.794Z,19.53
2023-02-03T10:18:19.980Z,18.67
2023-02-03T10:20:53.409Z,18.13
2023-02-03T10:23:29.937Z,17.17
2023-02-03T10:26:04.602Z,22.85
2023-02-03T10:28:39.665Z,23.00
2023-02-03T10:31:19.183Z,18.40
2023-02-03T10:33:48.026Z,22.87
2023-02-03T10:36:23.735Z,17.53
2023-02-03T10:39:22.280Z,16.90
2023-02-03T10:44:34.162Z,19.83
2023-02-03T10:47:02.168Z,17.83
2023-02-03T10:49:29.890Z,23.77
2023-02-03T10:52:03.531Z,24.23
2023-02-03T10:54:34.390Z,24.27
2023-02-03T10:57:14.602Z,17.67
2023-02-03T10:59:45.578Z,17.13
2023-02-03T11:02:30.566Z,17.83
2023-02-03T11:05:16.426Z,20.80
2023-02-03T11:07:44.833Z,17.80
2023-02-03T11:10:31.234Z,15.73
2023-02-03T11:13:26.653Z,18.20
2023-02-03T11:15:58.759Z,19.03
2023-02-03T11:18:47.485Z,19.57
2023-02-03T11:21:18.221Z,17.83
2023-02-03T11:24:11.116Z,18.33
2023-02-03T11:26:45.454Z,18.53
2023-02-03T11:29:25.175Z,17.17
2023-02-03T11:31:57.939Z,22.20
2023-02-03T11:34:36.013Z,16.93
2023-02-03T11:37:28.597Z,15.70
2023-02-03T11:40:16.444Z,17.63
2023-02-03T11:43:02.551Z,18.27
2023-02-03T11:45:38.601Z,17.53
2023-02-03T11:48:30.561Z,18.17
2023-02-03T11:51:24.535Z,18.43
2023-02-03T11:54:16.722Z,17.97
2023-02-03T11:57:17.141Z,16.90
2023-02-03T12:00:05.047Z,15.10
2023-02-03T12:05:20.351Z,19.10
2023-02-03T12:07:57.637Z,18.20
2023-02-03T12:10:46.182Z,18.17
2023-02-03T12:13:33.150Z,16.53
2023-02-03T12:16:12.058Z,16.70
2023-02-03T12:19:03.731Z,16.57
2023-02-03T12:22:33.453Z,17.33
2023-02-03T12:25:36.012Z,19.73
2023-02-03T12:28:36.839Z,18.57
2023-02-03T12:31:31.921Z,15.20
2023-02-03T12:34:19.892Z,16.73
2023-02-03T12:37:06.210Z,17.30
2023-02-03T12:40:22.270Z,15.47
2023-02-03T12:43:00.147Z,17.23
2023-02-03T12:45:36.715Z,14.40
2023-02-03T12:48:14.846Z,12.63
2023-02-03T12:51:02.534Z,12.40
2023-02-03T12:53:47.413Z,14.13
2023-02-03T12:56:26.628Z,14.83
2023-02-03T12:59:07.765Z,11.90
2023-02-03T13:01:51.426Z,14.00
2023-02-03T13:04:37.999Z,13.87
2023-02-03T13:07:14.714Z,13.53
2023-02-03T13:09:57.752Z,9.77
2023-02-03T13:12:57.611Z,13.13
2023-02-03T13:15:41.295Z,11.13
2023-02-03T13:18:27.543Z,11.87
2023-02-03T13:20:57.267Z,11.30
2023-02-03T13:23:29.079Z,12.23
2023-02-03T13:26:10.175Z,16.90
2023-02-03T13:29:03.882Z,11.37
2023-02-03T13:31:34.340Z,12.97
2023-02-03T13:34:23.760Z,11.53
2023-02-03T13:37:00.111Z,12.63
2023-02-03T13:39:33.703Z,12.00
2023-02-03T13:42:19.425Z,11.23
2023-02-03T13:44:51.724Z,9.87
2023-02-03T13:47:26.702Z,13.70
2023-02-03T13:50:02.941Z,10.93
2023-02-03T13:52:47.387Z,14.17
2023-02-03T13:55:42.740Z,12.43
2023-02-03T13:58:31.604Z,13.97
2023-02-03T14:01:03.713Z,13.57
2023-02-03T14:03:31.223Z,14.80
2023-02-03T14:06:01.814Z,16.03
2023-02-03T14:08:29.450Z,16.50
2023-02-03T14:11:34.598Z,14.90
2023-02-03T14:14:10.233Z,14.33
2023-02-03T14:16:45.616Z,13.23
2023-02-03T14:19:20.339Z,13.43
2023-02-03T14:22:15.627Z,16.20
2023-02-03T14:24:47.245Z,19.07
2023-02-03T14:27:21.635Z,19.83
2023-02-03T14:30:08.216Z,17.33
2023-02-03T14:32:56.183Z,20.93
2023-02-03T14:38:07.348Z,17.20
2023-02-03T14:40:52.855Z,16.47
2023-02-03T14:43:35.530Z,16.73
2023-02-03T14:46:22.108Z,16.10
2023-02-03T14:49:33.534Z,17.93
2023-02-03T14:52:22.255Z,16.67
2023-02-03T14:55:01.626Z,17.90
2023-02-03T14:57:31.945Z,16.77
2023-02-03T15:00:07.831Z,20.10
2023-02-03T15:02:36.342Z,15.90
2023-02-03T15:05:12.917Z,19.37
2023-02-03T15:07:49.700Z,20.05
2023-02-03T15:10:24.185Z,18.98
2023-02-03T15:12:53.921Z,19.30
2023-02-03T15:15:26.456Z,15.73
2023-02-03T15:18:02.383Z,18.93
2023-02-03T15:20:41.585Z,17.30
2023-02-03T15:23:29.560Z,21.67
2023-02-03T15:25:58.592Z,16.67
2023-02-03T15:28:28.065Z,18.57
2023-02-03T15:31:12.435Z,19.73
2023-02-03T15:33:44.385Z,16.90
2023-02-03T15:36:23.281Z,14.80
2023-02-03T15:38:59.051Z,20.97
2023-02-03T15:41:26.743Z,18.90
2023-02-03T15:43:59.037Z,20.23
2023-02-03T15:46:48.849Z,17.13
2023-02-03T15:49:19.391Z,16.90
2023-02-03T15:51:52.143Z,14.17
2023-02-03T15:54:25.065Z,16.70
2023-02-03T15:57:05.488Z,14.40
2023-02-03T15:59:36.969Z,21.03
2023-02-03T16:02:21.148Z,17.67
2023-02-03T16:04:50.520Z,15.37
2023-02-03T16:07:29.822Z,14.50
2023-02-03T16:09:58.868Z,17.03
2023-02-03T16:12:35.988Z,12.80
2023-02-03T16:15:04.636Z,14.38
2023-02-03T16:17:39.441Z,14.03
2023-02-03T16:20:13.322Z,14.97
2023-02-03T16:22:47.199Z,12.93
2023-02-03T16:25:21.884Z,15.53
2023-02-03T16:28:29.798Z,13.87
2023-02-03T16:31:38.768Z,13.32
2023-02-03T16:34:37.155Z,12.53
2023-02-03T16:37:41.645Z,12.20
2023-02-03T16:40:30.205Z,11.23
2023-02-03T16:43:17.285Z,13.63
2023-02-03T16:46:03.709Z,15.20
2023-02-03T16:48:49.837Z,13.80
2023-02-03T16:51:17.519Z,11.60
2023-02-03T16:53:48.364Z,12.27
2023-02-03T16:56:18.694Z,13.33
2023-02-03T16:58:46.256Z,12.27
2023-02-03T17:01:14.116Z,11.77
2023-02-03T17:03:41.815Z,13.43
2023-02-03T17:06:11.961Z,12.50
2023-02-03T17:08:40.519Z,12.90
2023-02-03T17:11:20.650Z,13.80
2023-02-03T17:13:48.721Z,12.97
2023-02-03T17:16:19.853Z,12.17
2023-02-03T17:18:47.711Z,12.03
2023-02-03T17:21:18.282Z,11.27
2023-02-03T17:23:45.820Z,13.10
2023-02-03T17:26:13.391Z,13.60
2023-02-03T17:28:43.322Z,14.77
2023-02-03T17:31:17.341Z,13.20
2023-02-03T17:33:46.049Z,14.03
2023-02-03T17:36:17.352Z,7.83
2023-02-03T17:55:22.088Z,3.80
2023-02-03T17:57:49.767Z,4.70
2023-02-03T18:00:17.794Z,4.00
2023-02-03T18:02:51.276Z,3.90
2023-02-03T18:05:19.300Z,5.17
2023-02-03T18:07:49.245Z,4.10
2023-02-03T18:10:17.041Z,4.83
2023-02-03T18:12:44.522Z,3.63
2023-02-03T18:15:12.119Z,3.93
2023-02-03T18:17:39.654Z,4.83
2023-02-03T18:20:09.975Z,8.77
2023-02-03T18:22:37.871Z,7.43
2023-02-03T18:25:06.059Z,5.47
2023-02-03T18:27:33.752Z,8.00
2023-02-03T18:30:01.375Z,6.60
2023-02-03T18:32:30.569Z,6.97
2023-02-03T18:35:00.997Z,7.73
2023-02-03T18:37:28.838Z,7.63
2023-02-03T18:39:56.409Z,7.63
2023-02-03T18:42:24.169Z,7.13
2023-02-03T18:44:51.705Z,6.00
2023-02-03T18:47:19.335Z,6.83
2023-02-03T18:49:48.010Z,4.97
2023-02-03T18:52:15.483Z,5.80
2023-02-03T18:54:43.119Z,7.90
2023-02-03T18:57:14.028Z,5.73
2023-02-03T18:59:41.819Z,7.70
2023-02-03T19:02:10.795Z,4.90
2023-02-03T19:04:38.473Z,7.30
2023-02-03T19:07:06.091Z,7.53
2023-02-03T19:09:34.204Z,8.53
2023-02-03T19:12:03.166Z,5.20
2023-02-03T19:14:30.661Z,5.93
2023-02-03T19:16:58.275Z,7.30
2023-02-03T19:19:25.848Z,5.73
2023-02-03T19:21:53.656Z,4.00
2023-02-03T19:24:21.900Z,6.10
2023-02-03T19:26:49.415Z,5.47
2023-02-03T19:29:17.104Z,7.90
2023-02-03T19:31:44.959Z,6.47
2023-02-03T19:34:17.096Z,6.83
2023-02-03T19:36:48.964Z,11.87
2023-02-03T19:39:18.816Z,8.00
2023-02-03T19:41:46.551Z,5.17
2023-02-03T19:44:14.386Z,5.47
2023-02-03T19:46:43.054Z,11.20
2023-02-03T19:49:13.453Z,9.13
2023-02-03T19:51:42.891Z,6.50
2023-02-03T19:54:18.527Z,7.77
2023-02-03T19:56:49.090Z,4.73
2023-02-03T19:59:16.855Z,6.27
2023-02-03T20:01:44.330Z,4.00
2023-02-03T20:04:11.981Z,7.37
2023-02-03T20:06:39.645Z,6.60
2023-02-03T20:09:07.437Z,5.13
2023-02-03T20:11:35.211Z,4.87
2023-02-03T20:14:02.923Z,9.97
2023-02-03T20:16:30.573Z,3.77
2023-02-03T20:19:01.073Z,4.03
2023-02-03T20:21:28.695Z,5.43
2023-02-03T20:23:56.123Z,4.00
2023-02-03T20:26:23.672Z,4.30
2023-02-03T20:28:51.123Z,3.20
2023-02-03T20:31:18.801Z,3.37
2023-02-03T20:33:46.457Z,4.17
2023-02-03T20:36:14.018Z,3.53
2023-02-03T20:38:41.696Z,4.33
2023-02-03T20:41:11.610Z,5.23
2023-02-03T20:43:39.373Z,3.03
2023-02-03T20:46:11.634Z,3.33
2023-02-03T20:48:39.530Z,4.47
2023-02-03T20:51:12.667Z,4.53
2023-02-03T20:53:41.271Z,3.43
2023-02-03T20:56:18.292Z,6.17
2023-02-03T20:58:45.945Z,4.32
2023-02-03T21:01:21.757Z,6.40
2023-02-03T21:04:07.846Z,4.37
2023-02-03T21:06:36.207Z,7.80
2023-02-03T21:09:16.381Z,7.27
2023-02-03T21:11:44.179Z,3.00
2023-02-03T21:14:20.491Z,8.83
2023-02-03T21:16:48.088Z,4.27
2023-02-03T21:19:33.334Z,4.73
2023-02-03T21:22:17.437Z,3.47
2023-02-03T21:24:59.517Z,4.70
2023-02-03T21:27:29.046Z,3.37
2023-02-03T21:29:58.409Z,3.43
2023-02-03T21:32:40.292Z,3.70
2023-02-03T21:35:30.010Z,3.87
2023-02-03T21:38:02.868Z,5.13
2023-02-03T21:40:32.830Z,4.40
2023-02-03T21:43:03.445Z,3.97
2023-02-03T21:45:37.075Z,3.57
2023-02-03T21:48:23.044Z,4.30
2023-02-03T21:50:50.677Z,3.53
2023-02-03T21:53:32.924Z,5.80
2023-02-03T21:56:18.425Z,4.33
2023-02-03T21:58:47.655Z,3.13
2023-02-03T22:01:18.354Z,3.20
2023-02-03T22:03:49.336Z,4.27
2023-02-03T22:06:24.020Z,36.73
2023-02-03T22:08:54.454Z,8.70
2023-02-03T22:11:23.852Z,5.57
2023-02-03T22:13:51.557Z,5.13
2023-02-03T22:16:19.861Z,4.20
2023-02-03T22:18:48.826Z,7.00
2023-02-03T22:21:17.212Z,4.80
2023-02-03T22:23:45.119Z,7.93
2023-02-03T22:26:14.436Z,6.97
2023-02-03T22:28:42.550Z,6.47
2023-02-03T22:31:11.816Z,4.20
2023-02-03T22:33:40.774Z,4.33
2023-02-03T22:36:10.322Z,7.60
2023-02-03T22:38:39.493Z,2.90
2023-02-03T22:41:08.562Z,4.00
2023-02-03T22:43:36.246Z,2.70
2023-02-03T22:46:05.362Z,3.20
2023-02-03T22:48:34.660Z,4.80
2023-02-03T22:51:02.368Z,4.07
2023-02-03T22:53:30.144Z,4.97
2023-02-03T22:55:57.978Z,4.43
2023-02-03T22:58:25.723Z,4.00
2023-02-03T23:00:53.178Z,3.50
2023-02-03T23:03:20.722Z,3.20
2023-02-03T23:05:48.401Z,3.53
2023-02-03T23:08:16.256Z,3.80
2023-02-03T23:10:43.890Z,4.23
2023-02-03T23:13:11.527Z,3.67
2023-02-03T23:15:39.064Z,5.17
2023-02-03T23:18:06.693Z,4.27
2023-02-03T23:20:34.243Z,5.03
2023-02-03T23:23:01.913Z,5.30
2023-02-03T23:25:29.388Z,3.77
2023-02-03T23:27:56.982Z,7.63
2023-02-03T23:30:24.474Z,4.87
2023-02-03T23:37:01.393Z,3.50
2023-02-03T23:39:50.829Z,5.33
2023-02-03T23:42:27.544Z,3.58
2023-02-03T23:45:29.015Z,5.37
2023-02-03T23:48:24.423Z,4.53
2023-02-03T23:51:07.249Z,4.80
2023-02-03T23:54:01.954Z,5.23
2023-02-03T23:56:29.622Z,6.67
2023-02-03T23:59:22.351Z,4.87
